CST,Max TemperatureF,Mean TemperatureF,Min TemperatureF,Max Dew PointF,MeanDew PointF,Min DewpointF,Max Humidity, Mean Humidity, Min Humidity, Max Sea Level PressureIn, Mean Sea Level PressureIn, Min Sea Level PressureIn, Max VisibilityMiles, Mean VisibilityMiles, Min VisibilityMiles, Max Wind SpeedMPH, Mean Wind SpeedMPH, Max Gust SpeedMPH,PrecipitationIn, CloudCover, Events, WindDirDegrees
2014-1-1,37,28,18,27,21,15,92,81,69,30.20,30.13,30.07,10,6,1,18,8,22,0.00,4,Snow,36
2014-1-2,20,13,5,16,10,0,84,77,70,30.48,30.20,30.04,10,5,2,24,15,30,0.00,7,Rain-Snow,338
2014-1-3,21,8,-5,12,4,-8,95,79,62,30.52,30.34,30.04,10,10,10,25,11,33,0.00,1,,186
2014-1-4,37,29,21,30,21,12,82,70,57,30.01,29.98,29.94,10,10,9,26,17,33,0.00,3,,199
2014-1-5,33,16,-2,31,16,-11,92,80,68,30.23,29.95,29.81,8,3,0,33,20,44,0.00,8,Fog-Rain-Snow,341
2014-1-6,-4,-6,-9,-13,-18,-21,68,63,57,30.40,30.31,30.25,10,7,4,27,22,41,0.00,2,Snow,299
2014-1-7,13,2,-9,4,1,-4,73,66,58,30.38,30.32,30.28,10,10,10,17,10,23,0.00,5,,168
2014-1-8,21,15,8,10,9,4,80,71,62,30.51,30.42,30.29,10,10,10,12,6,13,0.00,6,,38
2014-1-9,32,23,13,30,21,7,92,83,73,30.51,30.34,30.18,10,5,1,16,9,20,T,7,Snow,134
2014-1-10,42,37,32,41,35,30,100,95,89,30.16,29.88,29.54,10,4,1,24,13,32,0.66,8,Rain,171
2014-1-11,43,38,32,43,35,27,100,84,67,29.90,29.62,29.49,10,7,1,21,12,28,0.02,6,Rain,258
2014-1-12,47,37,26,34,30,24,92,76,60,29.97,29.84,29.69,10,10,9,25,14,35,0.00,2,,190
2014-1-13,52,41,29,37,33,26,85,68,50,29.86,29.72,29.61,10,10,9,20,13,25,0.00,0,,244
2014-1-14,40,32,24,34,25,13,92,73,54,30.03,29.85,29.75,10,9,4,25,14,38,0.03,5,Snow,261
2014-1-15,26,22,17,15,11,9,80,68,55,30.18,30.10,29.97,10,9,2,23,10,29,T,6,Snow,277
2014-1-16,40,32,23,30,24,15,88,76,63,29.94,29.73,29.63,10,8,0,29,15,41,0.00,8,Fog-Rain-Snow,223
2014-1-17,23,16,9,12,6,1,81,70,59,30.10,29.97,29.78,10,8,2,29,13,39,T,7,Snow,286
2014-1-18,32,22,12,30,20,7,92,74,55,30.05,29.78,29.64,10,6,1,24,11,59,T,7,Snow,218
2014-1-19,41,29,17,28,21,13,84,72,60,30.00,29.86,29.70,10,10,9,28,16,36,0.00,1,,237
2014-1-20,45,37,28,30,28,25,85,69,53,29.96,29.89,29.71,10,8,1,17,7,22,0.00,4,Snow,321
2014-1-21,26,14,1,27,3,-5,92,74,55,30.36,30.20,29.90,10,6,0,36,14,47,0.00,5,Rain-Snow,348
2014-1-22,22,12,2,12,5,-6,79,70,60,30.32,30.12,29.96,10,8,2,30,13,43,T,7,Rain-Snow,271
2014-1-23,6,2,-2,-5,-8,-11,72,66,59,30.73,30.58,30.29,10,9,7,23,14,32,T,1,Snow,299
2014-1-24,29,12,-5,23,7,-10,79,62,45,30.68,30.08,29.69,10,8,2,38,19,47,T,4,Snow,215
2014-1-25,36,25,14,30,12,-1,85,61,36,29.97,29.76,29.58,10,9,2,37,16,48,T,3,Rain-Snow,277
2014-1-26,49,33,16,30,19,-1,72,59,45,29.97,29.66,29.56,10,10,10,39,17,53,T,6,,254
2014-1-27,16,8,0,-2,-8,-11,68,55,41,30.53,30.32,30.02,10,10,5,21,18,24,T,3,Snow,308
2014-1-28,15,6,-4,-4,-8,-12,71,58,44,30.55,30.47,30.37,10,10,10,13,7,17,0.00,0,,274
2014-1-29,30,18,5,7,2,-4,76,52,28,30.35,30.26,30.12,10,10,10,24,13,30,0.00,0,,214
2014-1-30,38,29,20,23,10,7,57,42,27,30.10,29.94,29.78,10,10,10,32,18,46,0.00,3,,201
2014-1-31,33,28,22,24,20,17,88,76,64,30.17,30.09,29.99,10,4,1,15,8,20,0.00,8,Snow,39